»·PEaware :: N1684H KTOA-KCRQ

N1684H :: KTOA-KCRQ

FLIGHT INFORMATION

Flight Status: Arrived
Operator: Privately registered:
United States
More flights under this callsign
Pilot: Anthony D. (23991)
Aircraft: PIPER PA-28 CHEROKEE ARCHER
(P28A)
More flights by this aircraft type
Origin: KTOA Zamperini
United States
Destination: KCRQ McClellan-Palomar
United States
More flights between these airports :: More routes between these airports
Route: +
File this flight plan on PilotEdge
Remarks: FF
Altitude:
(Current/Filed)
5,500ft
Speed:
(Current/Filed)
0kts
Departed: 22-Nov-19 03:43 PM
Arrived: 22-Nov-19 04:30 PM
Distance/Time
Traveled:
67nm/0:47
Distance/Time
To Go:
Arrived

Flight Plot

Page will automatically refresh every two minutes.


Map Options




Map Legend


Flown Route
Filed Route
Departure Airport
Arrival Airport
Navaid (VOR, NDB)
Fix

Horizontal Profiles

Position Reports

Time Latitude Longitude Heading Altitude Ground
Speed
22-Nov-19 15:35 33.801134 -118.340439 126 101ft 9kts
22-Nov-19 15:36 33.800536 -118.338305 131 101ft 7kts
22-Nov-19 15:37 33.799465 -118.336676 127 101ft 8kts
22-Nov-19 15:38 33.798278 -118.334042 45 101ft 9kts
22-Nov-19 15:39 33.798554 -118.333404 305 101ft 0kts
22-Nov-19 15:39 33.798554 -118.333404 305 101ft 0kts
22-Nov-19 15:41 33.798596 -118.333456 325 101ft 1kts
22-Nov-19 15:42 33.799659 -118.333055 320 101ft 6kts
22-Nov-19 15:42 33.808772 -118.347875 305 557ft 90kts
22-Nov-19 15:44 33.804611 -118.366004 129 1733ft 74kts
22-Nov-19 15:44 33.793464 -118.349663 125 2507ft 77kts
22-Nov-19 15:45 33.782345 -118.327570 113 3389ft 78kts
22-Nov-19 15:46 33.769991 -118.306125 125 4225ft 78kts
22-Nov-19 15:47 33.757049 -118.284839 126 4994ft 80kts
22-Nov-19 15:48 33.744144 -118.261998 123 5528ft 91kts
22-Nov-19 15:49 33.727248 -118.235514 126 5472ft 102kts
22-Nov-19 15:50 33.710420 -118.208076 126 5462ft 101kts
22-Nov-19 15:51 33.692869 -118.181742 124 5481ft 101kts
22-Nov-19 15:52 33.675846 -118.154736 128 5493ft 101kts
22-Nov-19 15:53 33.660113 -118.127035 113 5503ft 101kts
22-Nov-19 15:54 33.650369 -118.095468 112 5513ft 101kts
22-Nov-19 15:55 33.638367 -118.064949 115 5521ft 101kts
22-Nov-19 15:56 33.625185 -118.035208 120 5533ft 100kts
22-Nov-19 15:57 33.610000 -118.006926 124 5544ft 101kts
22-Nov-19 15:58 33.593713 -117.979755 118 5554ft 100kts
22-Nov-19 15:59 33.581646 -117.949407 119 5560ft 101kts
22-Nov-19 16:00 33.564503 -117.922712 129 5568ft 101kts
22-Nov-19 16:01 33.548076 -117.895763 126 5575ft 101kts
22-Nov-19 16:02 33.531164 -117.868922 128 5591ft 101kts
22-Nov-19 16:03 33.513751 -117.842550 124 5606ft 100kts
22-Nov-19 16:04 33.498074 -117.814775 126 5619ft 100kts
22-Nov-19 16:05 33.481125 -117.788007 120 5629ft 100kts
22-Nov-19 16:06 33.464166 -117.761351 125 5642ft 100kts
22-Nov-19 16:07 33.447736 -117.734143 126 5653ft 101kts
22-Nov-19 16:08 33.430628 -117.707462 125 5665ft 100kts
22-Nov-19 16:09 33.412620 -117.681752 126 5675ft 100kts
22-Nov-19 16:10 33.395675 -117.655103 131 5681ft 101kts
22-Nov-19 16:11 33.376584 -117.630185 122 5663ft 101kts
22-Nov-19 16:12 33.359254 -117.603132 126 5593ft 103kts
22-Nov-19 16:13 33.342030 -117.575557 125 5532ft 103kts
22-Nov-19 16:14 33.325831 -117.547348 127 5467ft 103kts
22-Nov-19 16:15 33.307400 -117.523750 130 4989ft 89kts
22-Nov-19 16:16 33.290981 -117.500926 128 4323ft 89kts
22-Nov-19 16:17 33.275396 -117.478712 132 3900ft 87kts
22-Nov-19 16:18 33.258436 -117.458157 128 3520ft 86kts
22-Nov-19 16:19 33.240660 -117.439258 128 3155ft 86kts
22-Nov-19 16:20 33.225817 -117.417273 131 2768ft 86kts
22-Nov-19 16:21 33.208647 -117.397634 136 2459ft 87kts
22-Nov-19 16:22 33.191979 -117.377169 129 2176ft 85kts
22-Nov-19 16:23 33.175928 -117.356987 138 1794ft 81kts
22-Nov-19 16:24 33.159770 -117.339117 126 1723ft 78kts
22-Nov-19 16:25 33.148401 -117.316307 117 1620ft 79kts
22-Nov-19 16:26 33.145962 -117.289596 88 1470ft 81kts
22-Nov-19 16:27 33.145325 -117.264327 120 1303ft 75kts
22-Nov-19 16:28 33.130153 -117.268502 258 471ft 76kts
22-Nov-19 16:29 33.128033 -117.279338 225 334ft 6kts
22-Nov-19 16:30 33.127620 -117.278870 80 334ft 9kts
22-Nov-19 16:31 33.127497 -117.276384 168 334ft 0kts

Navigation Log

Ident Type
Flight plan parsing failed, navigation log unavailable